KCON/CON METAR and TAF weather

Enter ICAO airport designator
Station Type Date Time Source
KCON METAR 2020/06/02 17:51 UTC NOAA

KCON 021751Z AUTO 00000KT 10SM OVC075 18/05 A2991 RMK AO2 SLP128 T01780050 10183 20094 58028


Station Type Date Time Source
KCON Decoded METAR 2020/06/02 17:51 UTC NOAA

Concord, Concord Municipal Airport, NH, United States (KCON) 43-11-43N 071-30-04W 103M
Jun 02, 2020 - 01:51 PM EDT / 2020.06.02 1751 UTC
Wind: Calm:0
Visibility: 10 mile(s):0
Sky conditions: overcast
Temperature: 64.0 F (17.8 C)
Dew Point: 41.0 F (5.0 C)
Relative Humidity: 42%
Pressure (altimeter): 29.91 in. Hg (1012 hPa)
Pressure tendency: 0.08 inches (2.8 hPa) lower than three hours ago
ob: KCON 021751Z AUTO 00000KT 10SM OVC075 18/05 A2991 RMK AO2 SLP128 T01780050 10183 20094 58028
cycle: 18

Station Type Date Time Source
KCON TAF 2020/06/02 18:22 UTC NOAA

TAF KCON 021720Z 0218/0318 20005KT P6SM BKN060
FM031500 29003KT P6SM OVC050

Example: see airport list